AirNav   TITAN Aviation Fuels
 
 1511 users online  

1MN2 Hay Acres Airport
Akeley, Minnesota, USA

GOING TO AKELEY?


FAA INFORMATION EFFECTIVE 03 NOVEMBER 2022

Location

FAA Identifier: 1MN2
Lat/Long: 46-56-18.0000N 094-45-25.3200W
46-56.300000N 094-45.422000W
46.9383333,-94.7570333
(estimated)
Elevation: 1430 ft. / 436 m (estimated)
Variation: 04E (1995)
From city: 4 miles S of AKELEY, MN
Time zone: UTC -6 (UTC -5 during Daylight Saving Time)
Zip code: 56347

Airport Operations

Airport use: Private use. Permission required prior to landing
Activation date: 05/1998
Control tower: no
ARTCC: MINNEAPOLIS CENTER
FSS: PRINCETON FLIGHT SERVICE STATION
Attendance: UNATNDD
Wind indicator: yes
Segmented circle: no

Airport Communications

WX ASOS at PKD (13 nm W): 119.25 (218-732-0920)
WX AWOS-3PT at Y49 (14 nm N): 119.0 (218-547-2451)

Nearby radio navigation aids

VOR radial/distance  VOR name  Freq  Var
IDJr168/34.8LAKE BEMIDJI VOR/DME110.0001E

 
NDB name  Hdg/Dist  Freq  Var  ID
SPIDA051/10.926904EPK .--. -.-

Airport Services

Runway Information

Runway 16/34

Dimensions: 1650 x 75 ft. / 503 x 23 m
Surface: turf, in good condition
Runway edge markings: 16/34 THLDS MKD WITH TRIANGULAR ORANGE SIGNS.
RUNWAY 16  RUNWAY 34
Traffic pattern: leftleft

Airport Ownership and Management from official FAA records

Ownership: Privately-owned
Owner: JOSEPH C. PENAZ
8775 AIRPORT ROAD
WACONIA, MN 55387
Phone 612-932-0237
Manager: JOSEPH C. PENAZ
8775 AIRPORT ROAD
WACONIA, MN 55387
Phone 612-327-3490

Additional Remarks

A52-16 16/34 38 FT TREES 800 FT N; 50 FT TREES 100 FT W; 50 FT TREES 200 FT E.
DO NOT CHART PER MINNESOTA DEPARTMENT OF TRANSPORTATION
FOR CD CTC MINNEAPOLIS ARTCC AT 651-463-5588.

Instrument Procedures

There are no published instrument procedures at 1MN2.

Some nearby airports with instrument procedures:

KPKD - Park Rapids Municipal Airport-Konshok Field (13 nm W)
Y49 - Walker Municipal Airport (14 nm N)
KPWC - Pine River Regional Airport (20 nm SE)
KXVG - Longville Municipal Airport (23 nm E)
KSAZ - Staples Municipal Airport (34 nm S)
 
Loc | Ops | Rwys | IFR | FBO | Links
Com | Nav | Svcs | Stats | Notes
Area around 1MN2 (Hay Acres Airport)
 
Road maps at: MapQuest Bing Google
 
Aerial photo
No photo
 
Sectional chart

 
Airport distance calculator
Flying to Hay Acres Airport? Find the distance to fly.

From to 1MN2

Sunrise and sunset
Times for 29-Nov-2022
 Local
(UTC-6)
 Zulu
(UTC)
Morning civil twilight07:0813:08
Sunrise07:4213:42
Sunset16:3222:32
Evening civil twilight17:0723:07

Current date and time
Zulu (UTC)  29-Nov-2022 19:42:56
Local (UTC-6)  29-Nov-2022 13:42:56
 
METAR
KPKD 
13nm W 
291853Z AUTO 30012KT 10SM CLR M07/M12 A2961 RMK AO2 SLP053 T10721122
KY49 
14nm N 
291915Z AUTO 28006KT 10SM CLR M07/M13 A2961 RMK AO2 T10701129
KPWC 
21nm SE 
291915Z AUTO 32007KT 10SM CLR M06/M11 A2964 RMK AO2
KXVG 
23nm E 
291913Z AUTO 27006KT 10SM CLR M06/M12 A2961 RMK AO2
TAF
KBJI 
34nm N 
291720Z 2918/3018 26012KT P6SM BKN200 FM292200 28007KT P6SM OVC030 FM300200 28008KT P6SM -SN OVC015 FM300800 29012G25KT P6SM OVC015 FM301700 30016G25KT P6SM BKN015
KBRD 
41nm SE 
291732Z 2918/3018 30010KT P6SM OVC090 FM292200 30011G17KT P6SM OVC050 FM300200 29014G24KT P6SM OVC025 FM300800 29018G28KT P6SM OVC020 FM301300 29019G30KT P6SM BKN020
NOTAMs
Click for the latest NOTAMs
NOTAMs are issued by the DoD/FAA and will open in a separate window not controlled by AirNav.

 

 
 

Would you like to see your business listed on this page?

 If your business provides an interesting product or service to pilots, flight crews, aircraft, or users of the Hay Acres Airport, you should consider listing it here.  To start the listing process, click on the button below
 
Add a business
 

Other Pages about Hay Acres Airport

Update a link
 
Copyright © AirNav, LLC. All rights reserved. Privacy Policy  Contact